Pays
Station

 

Conditions  météo  pour  Erzincan  -  Turquie    Turquie

  
-9 °C
    
 
 

METAR pour Erzincan :

LTCD 212150Z 18001KT 9999 SCT045 BKN120 M09/M12 Q1022 NOSIG

 

Voici le bulletin pour Erzincan - Turquie.
 
Le bulletin a été fait il y a une heure et 6 minutes, à 21:50 UTC .
Le vent soufflait à la vitesse de 0.5 mètres par seconde de Sud (180°).
 
La température était de -9 °C, avec un point de rosée à -12 °C.
La pression atmosphérique était de 1022 hPa.
L'humidité relative était de 78.7%.
 
Il y avait 3 à 4/8ème de nébulosité à une hauteur de 1372 mètres et 5 à 7/8ème de nébulosité à une hauteur de 3658 mètres.
 
La visibilité globale était de supérieure à 10 kilomètres.
 

 
 
 

Pays :   A   B   C   D   E   F   G   H   I   J   K   L   M   N   O   P   Q   R   S   T   U   V   W   Y   Z

 

Partenaires :  Info Météo avec Met'info
Météo Marine avec MeteoMarine.net
Infos Site  |  Infos Légales  |  Crédits  |  Confidentialité
Contactez-nous  |  Ajouter aux favoris
© 2013-2019 METAR - Tous droits réservés